Ebervale, Pennsylvania
Current Conditions -  °F | °C
As of 11:15 AM on Tuesday 21 Oct 2014 (Local Time) from KHZL Reporting Station
Broken Clouds Broken Clouds  
Wind Chill: 55°   Ceiling: 1800
Heat Index: 55°   Visibility: 10mi
Dew Point: 46°   Wind: 5mph
Humidity: 72%   Direction: 130°SE
Pressure: 29.89"   Gusts: NA
Location:  40.99°N, 75.94°W
Report Text: KHZL 211515Z AUTO 13004KT 10SM SCT012 BKN018 BKN027 13/08 A2989 RMK AO2
Loading
Personal Weather Stations






























Interactive Weather Map
Tropical Storm Tracking
New forecast layout! Learn more

10-Day Weather Forecast

Advertisements
Track Severe Weather on mobile